sensor_id;sensor_type;location;lat;lon;timestamp;pressure;altitude;pressure_sealevel;temperature
67509;BMP280;54354;44.724;11.284;2023-07-29T00:01:42;101286.66;;;30.81
67509;BMP280;54354;44.724;11.284;2023-07-29T00:04:08;101292.50;;;30.78
67509;BMP280;54354;44.724;11.284;2023-07-29T00:06:35;101284.47;;;30.72
67509;BMP280;54354;44.724;11.284;2023-07-29T00:09:00;101290.28;;;30.69
67509;BMP280;54354;44.724;11.284;2023-07-29T00:11:26;101294.09;;;30.66
67509;BMP280;54354;44.724;11.284;2023-07-29T00:13:51;101295.34;;;30.65
67509;BMP280;54354;44.724;11.284;2023-07-29T00:16:18;101288.97;;;30.62
67509;BMP280;54354;44.724;11.284;2023-07-29T00:18:47;101284.97;;;30.63
67509;BMP280;54354;44.724;11.284;2023-07-29T00:21:13;101283.84;;;30.58
67509;BMP280;54354;44.724;11.284;2023-07-29T00:23:38;101290.78;;;30.59
67509;BMP280;54354;44.724;11.284;2023-07-29T00:26:04;101287.84;;;30.57
67509;BMP280;54354;44.724;11.284;2023-07-29T00:28:29;101289.13;;;30.56
67509;BMP280;54354;44.724;11.284;2023-07-29T00:30:55;101282.19;;;30.55
67509;BMP280;54354;44.724;11.284;2023-07-29T00:33:21;101293.66;;;30.54
67509;BMP280;54354;44.724;11.284;2023-07-29T00:35:46;101295.66;;;30.53
67509;BMP280;54354;44.724;11.284;2023-07-29T00:38:12;101297.69;;;30.53
67509;BMP280;54354;44.724;11.284;2023-07-29T00:40:37;101293.47;;;30.52
67509;BMP280;54354;44.724;11.284;2023-07-29T00:43:03;101294.75;;;30.51
67509;BMP280;54354;44.724;11.284;2023-07-29T00:45:29;101289.63;;;30.47
67509;BMP280;54354;44.724;11.284;2023-07-29T00:47:55;101303.28;;;30.47
67509;BMP280;54354;44.724;11.284;2023-07-29T00:50:21;101299.63;;;30.45
67509;BMP280;54354;44.724;11.284;2023-07-29T00:52:48;101290.31;;;30.40
67509;BMP280;54354;44.724;11.284;2023-07-29T00:55:14;101304.91;;;30.43
67509;BMP280;54354;44.724;11.284;2023-07-29T00:57:41;101299.06;;;30.39
67509;BMP280;54354;44.724;11.284;2023-07-29T01:00:08;101292.16;;;30.38
67509;BMP280;54354;44.724;11.284;2023-07-29T01:02:35;101298.84;;;30.37
67509;BMP280;54354;44.724;11.284;2023-07-29T01:05:01;101286.28;;;30.34
67509;BMP280;54354;44.724;11.284;2023-07-29T01:10:13;101289.25;;;30.43
67509;BMP280;54354;44.724;11.284;2023-07-29T01:13:10;101287.41;;;30.38
67509;BMP280;54354;44.724;11.284;2023-07-29T01:15:41;101297.38;;;30.36
67509;BMP280;54354;44.724;11.284;2023-07-29T01:18:11;101297.03;;;30.32
67509;BMP280;54354;44.724;11.284;2023-07-29T01:20:40;101291.56;;;30.32
67509;BMP280;54354;44.724;11.284;2023-07-29T01:23:07;101303.75;;;30.31
67509;BMP280;54354;44.724;11.284;2023-07-29T01:25:34;101295.19;;;30.26
67509;BMP280;54354;44.724;11.284;2023-07-29T01:28:00;101295.69;;;30.25
67509;BMP280;54354;44.724;11.284;2023-07-29T01:30:30;101292.38;;;30.19
67509;BMP280;54354;44.724;11.284;2023-07-29T01:33:10;101291.63;;;30.18
67509;BMP280;54354;44.724;11.284;2023-07-29T01:35:47;101291.13;;;30.20
67509;BMP280;54354;44.724;11.284;2023-07-29T01:38:16;101290.94;;;30.18
67509;BMP280;54354;44.724;11.284;2023-07-29T01:40:43;101297.84;;;30.19
67509;BMP280;54354;44.724;11.284;2023-07-29T01:43:10;101291.28;;;30.14
67509;BMP280;54354;44.724;11.284;2023-07-29T01:45:36;101296.00;;;30.14
67509;BMP280;54354;44.724;11.284;2023-07-29T01:48:06;101287.19;;;30.08
67509;BMP280;54354;44.724;11.284;2023-07-29T01:50:32;101295.06;;;30.11
67509;BMP280;54354;44.724;11.284;2023-07-29T01:52:58;101287.94;;;30.08
67509;BMP280;54354;44.724;11.284;2023-07-29T01:55:24;101290.50;;;30.06
67509;BMP280;54354;44.724;11.284;2023-07-29T01:57:50;101288.81;;;30.03
67509;BMP280;54354;44.724;11.284;2023-07-29T02:00:18;101290.41;;;29.99
67509;BMP280;54354;44.724;11.284;2023-07-29T02:02:45;101295.13;;;29.98
67509;BMP280;54354;44.724;11.284;2023-07-29T02:05:10;101299.66;;;29.95
67509;BMP280;54354;44.724;11.284;2023-07-29T02:07:36;101296.94;;;29.95
67509;BMP280;54354;44.724;11.284;2023-07-29T02:10:02;101294.78;;;29.94
67509;BMP280;54354;44.724;11.284;2023-07-29T02:12:27;101289.66;;;29.90
67509;BMP280;54354;44.724;11.284;2023-07-29T02:14:53;101289.66;;;29.90
67509;BMP280;54354;44.724;11.284;2023-07-29T02:17:18;101292.19;;;29.88
67509;BMP280;54354;44.724;11.284;2023-07-29T02:19:44;101291.25;;;29.86
67509;BMP280;54354;44.724;11.284;2023-07-29T02:22:16;101293.16;;;29.78
67509;BMP280;54354;44.724;11.284;2023-07-29T02:24:42;101291.59;;;29.82
67509;BMP280;54354;44.724;11.284;2023-07-29T02:27:07;101294.13;;;29.80
67509;BMP280;54354;44.724;11.284;2023-07-29T02:29:33;101288.44;;;29.78
67509;BMP280;54354;44.724;11.284;2023-07-29T02:32:02;101289.84;;;29.72
67509;BMP280;54354;44.724;11.284;2023-07-29T02:34:28;101286.25;;;29.77
67509;BMP280;54354;44.724;11.284;2023-07-29T02:36:55;101287.84;;;29.72
67509;BMP280;54354;44.724;11.284;2023-07-29T02:39:20;101281.47;;;29.70
67509;BMP280;54354;44.724;11.284;2023-07-29T02:41:46;101282.00;;;29.68
67509;BMP280;54354;44.724;11.284;2023-07-29T02:44:11;101288.72;;;29.67
67509;BMP280;54354;44.724;11.284;2023-07-29T02:46:37;101285.56;;;29.63
67509;BMP280;54354;44.724;11.284;2023-07-29T02:49:03;101289.38;;;29.60
67509;BMP280;54354;44.724;11.284;2023-07-29T02:51:30;101287.00;;;29.56
67509;BMP280;54354;44.724;11.284;2023-07-29T02:53:55;101288.06;;;29.53
67509;BMP280;54354;44.724;11.284;2023-07-29T02:56:21;101294.56;;;29.50
67509;BMP280;54354;44.724;11.284;2023-07-29T02:58:46;101284.91;;;29.49
67509;BMP280;54354;44.724;11.284;2023-07-29T03:01:12;101293.66;;;29.48
67509;BMP280;54354;44.724;11.284;2023-07-29T03:03:37;101290.50;;;29.44
67509;BMP280;54354;44.724;11.284;2023-07-29T03:06:05;101278.78;;;29.36
67509;BMP280;54354;44.724;11.284;2023-07-29T03:08:31;101285.50;;;29.35
67509;BMP280;54354;44.724;11.284;2023-07-29T03:10:57;101290.03;;;29.32
67509;BMP280;54354;44.724;11.284;2023-07-29T03:13:23;101290.88;;;29.27
67509;BMP280;54354;44.724;11.284;2023-07-29T03:15:49;101296.13;;;29.25
67509;BMP280;54354;44.724;11.284;2023-07-29T03:18:15;101289.00;;;29.22
67509;BMP280;54354;44.724;11.284;2023-07-29T03:20:41;101301.50;;;29.17
67509;BMP280;54354;44.724;11.284;2023-07-29T03:23:07;101292.41;;;29.15
67509;BMP280;54354;44.724;11.284;2023-07-29T03:25:32;101301.09;;;29.13
67509;BMP280;54354;44.724;11.284;2023-07-29T03:27:58;101300.16;;;29.11
67509;BMP280;54354;44.724;11.284;2023-07-29T03:30:24;101298.72;;;29.10
67509;BMP280;54354;44.724;11.284;2023-07-29T03:32:51;101299.22;;;29.08
67509;BMP280;54354;44.724;11.284;2023-07-29T03:35:16;101307.41;;;29.08
67509;BMP280;54354;44.724;11.284;2023-07-29T03:37:42;101299.03;;;29.06
67509;BMP280;54354;44.724;11.284;2023-07-29T03:40:08;101292.63;;;29.04
67509;BMP280;54354;44.724;11.284;2023-07-29T03:42:36;101302.81;;;29.03
67509;BMP280;54354;44.724;11.284;2023-07-29T03:45:02;101296.41;;;29.01
67509;BMP280;54354;44.724;11.284;2023-07-29T03:47:28;101299.66;;;28.99
67509;BMP280;54354;44.724;11.284;2023-07-29T03:49:58;101291.28;;;28.97
67509;BMP280;54354;44.724;11.284;2023-07-29T03:52:23;101290.53;;;28.96
67509;BMP280;54354;44.724;11.284;2023-07-29T03:54:49;101291.06;;;28.95
67509;BMP280;54354;44.724;11.284;2023-07-29T03:57:15;101300.31;;;28.92
67509;BMP280;54354;44.724;11.284;2023-07-29T03:59:40;101304.50;;;28.93
67509;BMP280;54354;44.724;11.284;2023-07-29T04:02:06;101309.97;;;28.93
67509;BMP280;54354;44.724;11.284;2023-07-29T04:04:31;101304.50;;;28.93
67509;BMP280;54354;44.724;11.284;2023-07-29T04:06:57;101310.47;;;28.91
67509;BMP280;54354;44.724;11.284;2023-07-29T04:09:23;101310.28;;;28.89
67509;BMP280;54354;44.724;11.284;2023-07-29T04:11:49;101302.09;;;28.89
67509;BMP280;54354;44.724;11.284;2023-07-29T04:14:14;101323.16;;;28.89
67509;BMP280;54354;44.724;11.284;2023-07-29T04:16:40;101330.63;;;28.88
67509;BMP280;54354;44.724;11.284;2023-07-29T04:19:06;101334.06;;;28.89
67509;BMP280;54354;44.724;11.284;2023-07-29T04:21:31;101334.06;;;28.89
67509;BMP280;54354;44.724;11.284;2023-07-29T04:23:57;101331.31;;;28.89
67509;BMP280;54354;44.724;11.284;2023-07-29T04:26:22;101338.06;;;28.88
67509;BMP280;54354;44.724;11.284;2023-07-29T04:28:48;101338.81;;;28.88
67509;BMP280;54354;44.724;11.284;2023-07-29T04:31:13;101341.09;;;28.84
67509;BMP280;54354;44.724;11.284;2023-07-29T04:33:39;101344.56;;;28.85
67509;BMP280;54354;44.724;11.284;2023-07-29T04:36:04;101343.09;;;28.84
67509;BMP280;54354;44.724;11.284;2023-07-29T04:38:32;101341.44;;;28.81
67509;BMP280;54354;44.724;11.284;2023-07-29T04:40:58;101342.38;;;28.83
67509;BMP280;54354;44.724;11.284;2023-07-29T04:43:35;101347.31;;;28.85
67509;BMP280;54354;44.724;11.284;2023-07-29T04:46:00;101346.66;;;28.92
67509;BMP280;54354;44.724;11.284;2023-07-29T04:48:26;101345.41;;;28.93
67509;BMP280;54354;44.724;11.284;2023-07-29T04:50:52;101338.38;;;28.97
67509;BMP280;54354;44.724;11.284;2023-07-29T04:53:17;101340.56;;;28.99
67509;BMP280;54354;44.724;11.284;2023-07-29T04:55:43;101341.50;;;29.02
67509;BMP280;54354;44.724;11.284;2023-07-29T04:58:09;101343.50;;;29.01
67509;BMP280;54354;44.724;11.284;2023-07-29T05:00:35;101343.72;;;29.03
67509;BMP280;54354;44.724;11.284;2023-07-29T05:03:02;101347.19;;;29.04
67509;BMP280;54354;44.724;11.284;2023-07-29T05:05:28;101340.47;;;29.05
67509;BMP280;54354;44.724;11.284;2023-07-29T05:07:53;101335.00;;;29.05
67509;BMP280;54354;44.724;11.284;2023-07-29T05:10:19;101335.22;;;29.07
67509;BMP280;54354;44.724;11.284;2023-07-29T05:12:45;101335.94;;;29.07
67509;BMP280;54354;44.724;11.284;2023-07-29T05:15:11;101340.34;;;29.10
67509;BMP280;54354;44.724;11.284;2023-07-29T05:17:36;101339.28;;;29.13
67509;BMP280;54354;44.724;11.284;2023-07-29T05:20:02;101337.28;;;29.14
67509;BMP280;54354;44.724;11.284;2023-07-29T05:22:28;101347.16;;;29.17
67509;BMP280;54354;44.724;11.284;2023-07-29T05:24:53;101350.81;;;29.19
67509;BMP280;54354;44.724;11.284;2023-07-29T05:27:19;101354.47;;;29.22
67509;BMP280;54354;44.724;11.284;2023-07-29T05:29:44;101360.88;;;29.24
67509;BMP280;54354;44.724;11.284;2023-07-29T05:32:10;101360.56;;;29.28
67509;BMP280;54354;44.724;11.284;2023-07-29T05:34:35;101349.84;;;29.30
67509;BMP280;54354;44.724;11.284;2023-07-29T05:37:01;101352.47;;;29.36
67509;BMP280;54354;44.724;11.284;2023-07-29T05:39:27;101348.13;;;29.40
67509;BMP280;54354;44.724;11.284;2023-07-29T05:41:52;101352.75;;;29.45
67509;BMP280;54354;44.724;11.284;2023-07-29T05:44:18;101346.09;;;29.54
67509;BMP280;54354;44.724;11.284;2023-07-29T05:46:43;101350.91;;;29.61
67509;BMP280;54354;44.724;11.284;2023-07-29T05:49:09;101344.78;;;29.68
67509;BMP280;54354;44.724;11.284;2023-07-29T05:51:35;101355.03;;;29.75
67509;BMP280;54354;44.724;11.284;2023-07-29T05:54:00;101361.31;;;29.83
67509;BMP280;54354;44.724;11.284;2023-07-29T05:56:26;101367.34;;;29.89
67509;BMP280;54354;44.724;11.284;2023-07-29T05:58:51;101371.44;;;29.96
67509;BMP280;54354;44.724;11.284;2023-07-29T06:01:17;101356.19;;;30.01
67509;BMP280;54354;44.724;11.284;2023-07-29T06:03:46;101360.22;;;30.07
67509;BMP280;54354;44.724;11.284;2023-07-29T06:06:12;101362.94;;;30.07
67509;BMP280;54354;44.724;11.284;2023-07-29T06:08:38;101366.47;;;30.15
67509;BMP280;54354;44.724;11.284;2023-07-29T06:11:03;101355.94;;;30.19
67509;BMP280;54354;44.724;11.284;2023-07-29T06:13:32;101352.13;;;30.22
67509;BMP280;54354;44.724;11.284;2023-07-29T06:15:58;101344.13;;;30.24
67509;BMP280;54354;44.724;11.284;2023-07-29T06:18:24;101352.41;;;30.32
67509;BMP280;54354;44.724;11.284;2023-07-29T06:20:50;101351.50;;;30.37
67509;BMP280;54354;44.724;11.284;2023-07-29T06:23:16;101356.28;;;30.44
67509;BMP280;54354;44.724;11.284;2023-07-29T06:25:42;101355.63;;;30.51
67509;BMP280;54354;44.724;11.284;2023-07-29T06:28:09;101352.34;;;30.53
67509;BMP280;54354;44.724;11.284;2023-07-29T06:30:35;101366.25;;;30.63
67509;BMP280;54354;44.724;11.284;2023-07-29T06:33:00;101363.56;;;30.70
67509;BMP280;54354;44.724;11.284;2023-07-29T06:35:28;101365.59;;;30.77
67509;BMP280;54354;44.724;11.284;2023-07-29T06:37:54;101377.31;;;30.85
67509;BMP280;54354;44.724;11.284;2023-07-29T06:40:19;101376.59;;;30.92
67509;BMP280;54354;44.724;11.284;2023-07-29T06:42:45;101359.84;;;30.96
67509;BMP280;54354;44.724;11.284;2023-07-29T06:45:11;101369.34;;;31.03
67509;BMP280;54354;44.724;11.284;2023-07-29T06:47:37;101367.72;;;31.07
67509;BMP280;54354;44.724;11.284;2023-07-29T06:50:03;101373.75;;;31.13
67509;BMP280;54354;44.724;11.284;2023-07-29T06:52:28;101370.50;;;31.22
67509;BMP280;54354;44.724;11.284;2023-07-29T06:54:55;101373.63;;;31.34
67509;BMP280;54354;44.724;11.284;2023-07-29T06:57:23;101379.34;;;31.51
67509;BMP280;54354;44.724;11.284;2023-07-29T06:59:48;101387.75;;;31.84
67509;BMP280;54354;44.724;11.284;2023-07-29T07:02:14;101376.75;;;32.29
67509;BMP280;54354;44.724;11.284;2023-07-29T07:04:39;101373.50;;;32.79
67509;BMP280;54354;44.724;11.284;2023-07-29T07:07:05;101368.97;;;33.31
67509;BMP280;54354;44.724;11.284;2023-07-29T07:09:31;101379.00;;;33.86
67509;BMP280;54354;44.724;11.284;2023-07-29T07:11:57;101374.81;;;34.36
67509;BMP280;54354;44.724;11.284;2023-07-29T07:14:29;101362.66;;;34.84
67509;BMP280;54354;44.724;11.284;2023-07-29T07:16:54;101365.13;;;35.26
67509;BMP280;54354;44.724;11.284;2023-07-29T07:19:20;101372.34;;;35.67
67509;BMP280;54354;44.724;11.284;2023-07-29T07:21:45;101365.38;;;36.05
67509;BMP280;54354;44.724;11.284;2023-07-29T07:24:11;101360.25;;;36.40
67509;BMP280;54354;44.724;11.284;2023-07-29T07:26:36;101352.75;;;36.71
67509;BMP280;54354;44.724;11.284;2023-07-29T07:29:02;101350.00;;;37.02
67509;BMP280;54354;44.724;11.284;2023-07-29T07:31:27;101339.84;;;37.26
67509;BMP280;54354;44.724;11.284;2023-07-29T07:33:53;101341.75;;;37.45
67509;BMP280;54354;44.724;11.284;2023-07-29T07:36:18;101346.88;;;37.60
67509;BMP280;54354;44.724;11.284;2023-07-29T07:38:44;101343.94;;;37.79
67509;BMP280;54354;44.724;11.284;2023-07-29T07:41:09;101340.84;;;37.96
67509;BMP280;54354;44.724;11.284;2023-07-29T07:43:35;101331.53;;;38.13
67509;BMP280;54354;44.724;11.284;2023-07-29T07:46:01;101342.13;;;38.28
67509;BMP280;54354;44.724;11.284;2023-07-29T07:48:30;101341.56;;;38.42
67509;BMP280;54354;44.724;11.284;2023-07-29T07:50:55;101347.72;;;38.63
67509;BMP280;54354;44.724;11.284;2023-07-29T07:53:21;101347.94;;;38.79
67509;BMP280;54354;44.724;11.284;2023-07-29T07:55:46;101339.13;;;38.94
67509;BMP280;54354;44.724;11.284;2023-07-29T07:58:12;101341.66;;;39.02
67509;BMP280;54354;44.724;11.284;2023-07-29T08:00:38;101352.38;;;39.07
67509;BMP280;54354;44.724;11.284;2023-07-29T08:03:04;101346.56;;;39.15
67509;BMP280;54354;44.724;11.284;2023-07-29T08:05:29;101339.44;;;39.24
67509;BMP280;54354;44.724;11.284;2023-07-29T08:07:55;101343.25;;;39.30
67509;BMP280;54354;44.724;11.284;2023-07-29T08:10:21;101343.84;;;39.29
67509;BMP280;54354;44.724;11.284;2023-07-29T08:12:46;101345.63;;;39.36
67509;BMP280;54354;44.724;11.284;2023-07-29T08:15:12;101351.78;;;39.46
67509;BMP280;54354;44.724;11.284;2023-07-29T08:17:37;101341.63;;;39.51
67509;BMP280;54354;44.724;11.284;2023-07-29T08:20:03;101339.09;;;39.55
67509;BMP280;54354;44.724;11.284;2023-07-29T08:22:29;101338.66;;;39.60
67509;BMP280;54354;44.724;11.284;2023-07-29T08:25:03;101349.38;;;39.66
67509;BMP280;54354;44.724;11.284;2023-07-29T08:27:29;101343.84;;;39.66
67509;BMP280;54354;44.724;11.284;2023-07-29T08:29:54;101339.41;;;39.61
67509;BMP280;54354;44.724;11.284;2023-07-29T08:32:20;101342.44;;;39.53
67509;BMP280;54354;44.724;11.284;2023-07-29T08:34:46;101347.09;;;39.37
67509;BMP280;54354;44.724;11.284;2023-07-29T08:37:11;101337.97;;;39.23
67509;BMP280;54354;44.724;11.284;2023-07-29T08:39:37;101345.84;;;39.15
67509;BMP280;54354;44.724;11.284;2023-07-29T08:42:06;101343.69;;;39.13
67509;BMP280;54354;44.724;11.284;2023-07-29T08:44:41;101331.28;;;39.02
67509;BMP280;54354;44.724;11.284;2023-07-29T08:47:07;101339.84;;;38.95
67509;BMP280;54354;44.724;11.284;2023-07-29T08:49:33;101333.50;;;38.69
67509;BMP280;54354;44.724;11.284;2023-07-29T08:52:00;101339.41;;;38.40
67509;BMP280;54354;44.724;11.284;2023-07-29T08:54:26;101345.56;;;38.06
67509;BMP280;54354;44.724;11.284;2023-07-29T08:56:52;101349.69;;;37.72
67509;BMP280;54354;44.724;11.284;2023-07-29T08:59:19;101335.13;;;37.38
67509;BMP280;54354;44.724;11.284;2023-07-29T09:01:45;101337.03;;;37.14
67509;BMP280;54354;44.724;11.284;2023-07-29T09:04:10;101333.66;;;36.95
67509;BMP280;54354;44.724;11.284;2023-07-29T09:06:36;101332.75;;;36.71
67509;BMP280;54354;44.724;11.284;2023-07-29T09:09:07;101322.50;;;36.52
67509;BMP280;54354;44.724;11.284;2023-07-29T09:11:33;101332.97;;;36.44
67509;BMP280;54354;44.724;11.284;2023-07-29T09:14:00;101329.63;;;36.36
67509;BMP280;54354;44.724;11.284;2023-07-29T09:16:26;101326.31;;;36.28
67509;BMP280;54354;44.724;11.284;2023-07-29T09:18:52;101334.16;;;36.22
67509;BMP280;54354;44.724;11.284;2023-07-29T09:21:22;101329.38;;;36.12
67509;BMP280;54354;44.724;11.284;2023-07-29T09:23:50;101329.56;;;36.05
67509;BMP280;54354;44.724;11.284;2023-07-29T09:26:22;101324.19;;;35.97
67509;BMP280;54354;44.724;11.284;2023-07-29T09:28:52;101330.41;;;35.88
67509;BMP280;54354;44.724;11.284;2023-07-29T09:31:25;101330.44;;;35.78
67509;BMP280;54354;44.724;11.284;2023-07-29T09:34:03;101322.88;;;35.69
67509;BMP280;54354;44.724;11.284;2023-07-29T09:36:33;101322.13;;;35.69
67509;BMP280;54354;44.724;11.284;2023-07-29T09:38:59;101320.41;;;35.73
67509;BMP280;54354;44.724;11.284;2023-07-29T09:41:29;101329.13;;;35.70
67509;BMP280;54354;44.724;11.284;2023-07-29T09:44:01;101321.13;;;35.64
67509;BMP280;54354;44.724;11.284;2023-07-29T09:46:33;101321.13;;;35.55
67509;BMP280;54354;44.724;11.284;2023-07-29T09:48:59;101329.09;;;35.51
67509;BMP280;54354;44.724;11.284;2023-07-29T09:51:25;101324.47;;;35.43
67509;BMP280;54354;44.724;11.284;2023-07-29T09:53:51;101324.00;;;35.37
67509;BMP280;54354;44.724;11.284;2023-07-29T09:56:25;101313.44;;;35.34
67509;BMP280;54354;44.724;11.284;2023-07-29T09:58:52;101320.97;;;35.43
67509;BMP280;54354;44.724;11.284;2023-07-29T10:01:17;101330.50;;;35.42
67509;BMP280;54354;44.724;11.284;2023-07-29T10:03:44;101321.69;;;35.43
67509;BMP280;54354;44.724;11.284;2023-07-29T10:06:10;101319.22;;;35.48
67509;BMP280;54354;44.724;11.284;2023-07-29T10:08:36;101320.97;;;35.43
67509;BMP280;54354;44.724;11.284;2023-07-29T10:11:06;101318.06;;;35.41
67509;BMP280;54354;44.724;11.284;2023-07-29T10:13:32;101323.00;;;35.42
67509;BMP280;54354;44.724;11.284;2023-07-29T10:15:59;101310.53;;;35.41
67509;BMP280;54354;44.724;11.284;2023-07-29T10:18:28;101321.41;;;35.39
67509;BMP280;54354;44.724;11.284;2023-07-29T10:20:54;101312.81;;;35.26
67509;BMP280;54354;44.724;11.284;2023-07-29T10:23:22;101316.81;;;35.15
67509;BMP280;54354;44.724;11.284;2023-07-29T10:25:55;101318.56;;;35.11
67509;BMP280;54354;44.724;11.284;2023-07-29T10:28:25;101314.97;;;35.18
67509;BMP280;54354;44.724;11.284;2023-07-29T10:30:52;101314.69;;;35.23
67509;BMP280;54354;44.724;11.284;2023-07-29T10:33:17;101327.56;;;35.21
67509;BMP280;54354;44.724;11.284;2023-07-29T10:35:45;101319.31;;;35.21
67509;BMP280;54354;44.724;11.284;2023-07-29T10:38:12;101321.97;;;35.28
67509;BMP280;54354;44.724;11.284;2023-07-29T10:40:50;101320.81;;;35.31
67509;BMP280;54354;44.724;11.284;2023-07-29T10:43:24;101317.75;;;35.37
67509;BMP280;54354;44.724;11.284;2023-07-29T10:45:50;101326.34;;;35.41
67509;BMP280;54354;44.724;11.284;2023-07-29T10:53:54;101307.81;;;35.05
67509;BMP280;54354;44.724;11.284;2023-07-29T10:56:28;101302.88;;;35.03
67509;BMP280;54354;44.724;11.284;2023-07-29T10:58:55;101300.03;;;35.11
67509;BMP280;54354;44.724;11.284;2023-07-29T11:01:31;101301.66;;;35.24
67509;BMP280;54354;44.724;11.284;2023-07-29T11:15:11;101284.13;;;35.38
67509;BMP280;54354;44.724;11.284;2023-07-29T11:17:43;101282.56;;;35.55
67509;BMP280;54354;44.724;11.284;2023-07-29T11:20:10;101284.28;;;35.60
67509;BMP280;54354;44.724;11.284;2023-07-29T11:22:36;101281.41;;;35.58
67509;BMP280;54354;44.724;11.284;2023-07-29T11:25:02;101281.25;;;35.56
67509;BMP280;54354;44.724;11.284;2023-07-29T11:27:28;101283.72;;;35.52
67509;BMP280;54354;44.724;11.284;2023-07-29T11:29:58;101268.50;;;35.51
67509;BMP280;54354;44.724;11.284;2023-07-29T11:32:25;101264.16;;;35.57
67509;BMP280;54354;44.724;11.284;2023-07-29T11:34:51;101269.63;;;35.48
67509;BMP280;54354;44.724;11.284;2023-07-29T11:37:16;101264.41;;;35.32
67509;BMP280;54354;44.724;11.284;2023-07-29T11:39:43;101264.22;;;35.11
67509;BMP280;54354;44.724;11.284;2023-07-29T11:42:15;101260.44;;;34.97
67509;BMP280;54354;44.724;11.284;2023-07-29T11:44:41;101248.97;;;35.00
67509;BMP280;54354;44.724;11.284;2023-07-29T11:47:11;101252.31;;;34.89
67509;BMP280;54354;44.724;11.284;2023-07-29T11:49:40;101249.66;;;34.82
67509;BMP280;54354;44.724;11.284;2023-07-29T11:52:08;101246.94;;;34.91
67509;BMP280;54354;44.724;11.284;2023-07-29T11:54:38;101241.72;;;34.95
67509;BMP280;54354;44.724;11.284;2023-07-29T11:57:08;101243.47;;;35.00
67509;BMP280;54354;44.724;11.284;2023-07-29T11:59:35;101246.56;;;35.04
67509;BMP280;54354;44.724;11.284;2023-07-29T12:02:02;101239.56;;;34.94
67509;BMP280;54354;44.724;11.284;2023-07-29T12:04:30;101247.50;;;34.90
67509;BMP280;54354;44.724;11.284;2023-07-29T12:06:57;101249.81;;;34.84
67509;BMP280;54354;44.724;11.284;2023-07-29T12:09:22;101246.34;;;34.83
67509;BMP280;54354;44.724;11.284;2023-07-29T12:11:48;101244.56;;;34.78
67509;BMP280;54354;44.724;11.284;2023-07-29T12:14:16;101230.91;;;34.70
67509;BMP280;54354;44.724;11.284;2023-07-29T12:16:48;101229.50;;;34.69
67509;BMP280;54354;44.724;11.284;2023-07-29T12:19:15;101234.00;;;34.75
67509;BMP280;54354;44.724;11.284;2023-07-29T12:21:42;101230.38;;;34.72
67509;BMP280;54354;44.724;11.284;2023-07-29T12:24:07;101224.16;;;34.71
67509;BMP280;54354;44.724;11.284;2023-07-29T12:26:33;101228.63;;;34.67
67509;BMP280;54354;44.724;11.284;2023-07-29T12:29:11;101229.00;;;34.54
67509;BMP280;54354;44.724;11.284;2023-07-29T12:31:37;101217.69;;;34.50
67509;BMP280;54354;44.724;11.284;2023-07-29T12:34:03;101221.31;;;34.52
67509;BMP280;54354;44.724;11.284;2023-07-29T12:36:49;101197.44;;;34.55
67509;BMP280;54354;44.724;11.284;2023-07-29T12:39:22;101214.22;;;34.49
67509;BMP280;54354;44.724;11.284;2023-07-29T12:41:50;101203.94;;;34.50
67509;BMP280;54354;44.724;11.284;2023-07-29T12:44:17;101202.94;;;34.55
67509;BMP280;54354;44.724;11.284;2023-07-29T12:46:43;101197.84;;;34.51
67509;BMP280;54354;44.724;11.284;2023-07-29T12:49:09;101199.47;;;34.54
67509;BMP280;54354;44.724;11.284;2023-07-29T12:51:35;101191.94;;;34.55
67509;BMP280;54354;44.724;11.284;2023-07-29T12:54:03;101190.34;;;34.52
67509;BMP280;54354;44.724;11.284;2023-07-29T12:56:30;101188.31;;;34.52
67509;BMP280;54354;44.724;11.284;2023-07-29T12:59:00;101185.56;;;34.52
67509;BMP280;54354;44.724;11.284;2023-07-29T13:01:26;101185.88;;;34.56
67509;BMP280;54354;44.724;11.284;2023-07-29T13:03:53;101184.25;;;34.53
67509;BMP280;54354;44.724;11.284;2023-07-29T13:06:19;101195.25;;;34.53
67509;BMP280;54354;44.724;11.284;2023-07-29T13:08:45;101188.47;;;34.54
67509;BMP280;54354;44.724;11.284;2023-07-29T13:11:12;101186.44;;;34.55
67509;BMP280;54354;44.724;11.284;2023-07-29T13:13:40;101177.19;;;34.60
67509;BMP280;54354;44.724;11.284;2023-07-29T13:16:05;101176.59;;;34.61
67509;BMP280;54354;44.724;11.284;2023-07-29T13:18:32;101165.03;;;34.63
67509;BMP280;54354;44.724;11.284;2023-07-29T13:20:57;101169.22;;;34.64
67509;BMP280;54354;44.724;11.284;2023-07-29T13:23:24;101166.63;;;34.66
67509;BMP280;54354;44.724;11.284;2023-07-29T13:25:49;101165.34;;;34.67
67509;BMP280;54354;44.724;11.284;2023-07-29T13:28:16;101163.47;;;34.69
67509;BMP280;54354;44.724;11.284;2023-07-29T13:30:44;101161.22;;;35.33
67509;BMP280;54354;44.724;11.284;2023-07-29T13:33:10;101164.41;;;35.01
67509;BMP280;54354;44.724;11.284;2023-07-29T13:35:36;101167.25;;;34.84
67509;BMP280;54354;44.724;11.284;2023-07-29T13:38:02;101162.91;;;34.81
67509;BMP280;54354;44.724;11.284;2023-07-29T13:40:27;101154.22;;;34.75
67509;BMP280;54354;44.724;11.284;2023-07-29T13:42:53;101145.34;;;34.66
67509;BMP280;54354;44.724;11.284;2023-07-29T13:45:19;101146.50;;;34.63
67509;BMP280;54354;44.724;11.284;2023-07-29T13:47:45;101146.34;;;34.61
67509;BMP280;54354;44.724;11.284;2023-07-29T13:50:10;101146.06;;;34.67
67509;BMP280;54354;44.724;11.284;2023-07-29T13:52:38;101141.44;;;34.69
67509;BMP280;54354;44.724;11.284;2023-07-29T13:55:04;101141.59;;;34.71
67509;BMP280;54354;44.724;11.284;2023-07-29T13:57:31;101137.38;;;34.70
67509;BMP280;54354;44.724;11.284;2023-07-29T13:59:57;101126.63;;;34.65
67509;BMP280;54354;44.724;11.284;2023-07-29T14:02:23;101120.69;;;34.59